sensor_id;sensor_type;location;lat;lon;timestamp;temperature;humidity
52899;DHT22;38763;53.096;6.062;2022-09-09T00:00:23;14.60;99.90
52899;DHT22;38763;53.096;6.062;2022-09-09T00:05:46;14.50;99.90
52899;DHT22;38763;53.096;6.062;2022-09-09T00:08:27;14.60;99.90
52899;DHT22;38763;53.096;6.062;2022-09-09T00:11:00;14.40;99.90
52899;DHT22;38763;53.096;6.062;2022-09-09T00:13:42;14.40;99.90
52899;DHT22;38763;53.096;6.062;2022-09-09T00:16:17;14.40;99.90
52899;DHT22;38763;53.096;6.062;2022-09-09T00:19:07;14.50;99.90
52899;DHT22;38763;53.096;6.062;2022-09-09T00:21:39;14.40;99.90
52899;DHT22;38763;53.096;6.062;2022-09-09T00:24:23;14.40;99.90
52899;DHT22;38763;53.096;6.062;2022-09-09T00:26:55;14.20;99.90
52899;DHT22;38763;53.096;6.062;2022-09-09T00:29:43;14.40;99.90
52899;DHT22;38763;53.096;6.062;2022-09-09T00:32:13;14.30;99.90
52899;DHT22;38763;53.096;6.062;2022-09-09T00:35:02;14.40;99.90
52899;DHT22;38763;53.096;6.062;2022-09-09T00:37:28;14.30;99.90
52899;DHT22;38763;53.096;6.062;2022-09-09T00:39:59;14.20;99.90
52899;DHT22;38763;53.096;6.062;2022-09-09T00:42:42;14.30;99.90
52899;DHT22;38763;53.096;6.062;2022-09-09T00:48:01;14.30;99.90
52899;DHT22;38763;53.096;6.062;2022-09-09T00:58:26;14.10;99.90
52899;DHT22;38763;53.096;6.062;2022-09-09T01:03:51;14.20;99.90
52899;DHT22;38763;53.096;6.062;2022-09-09T01:06:31;14.10;99.90
52899;DHT22;38763;53.096;6.062;2022-09-09T01:09:17;14.10;99.90
52899;DHT22;38763;53.096;6.062;2022-09-09T01:11:57;14.10;99.90
52899;DHT22;38763;53.096;6.062;2022-09-09T01:14:48;14.10;99.90
52899;DHT22;38763;53.096;6.062;2022-09-09T01:22:30;14.00;99.90
52899;DHT22;38763;53.096;6.062;2022-09-09T01:28:05;14.00;99.90
52899;DHT22;38763;53.096;6.062;2022-09-09T01:30:34;14.00;99.90
52899;DHT22;38763;53.096;6.062;2022-09-09T01:33:00;14.00;99.90
52899;DHT22;38763;53.096;6.062;2022-09-09T01:35:43;14.10;99.90
52899;DHT22;38763;53.096;6.062;2022-09-09T01:38:10;14.20;99.90
52899;DHT22;38763;53.096;6.062;2022-09-09T01:40:36;14.10;99.90
52899;DHT22;38763;53.096;6.062;2022-09-09T01:43:02;14.10;99.90
52899;DHT22;38763;53.096;6.062;2022-09-09T01:45:29;14.20;99.90
52899;DHT22;38763;53.096;6.062;2022-09-09T01:47:56;14.20;99.90
52899;DHT22;38763;53.096;6.062;2022-09-09T01:50:22;14.10;99.90
52899;DHT22;38763;53.096;6.062;2022-09-09T01:52:51;14.10;99.90
52899;DHT22;38763;53.096;6.062;2022-09-09T01:55:28;14.20;99.90
52899;DHT22;38763;53.096;6.062;2022-09-09T01:57:58;14.20;99.90
52899;DHT22;38763;53.096;6.062;2022-09-09T02:00:29;14.10;99.90
52899;DHT22;38763;53.096;6.062;2022-09-09T02:03:08;14.20;99.90
52899;DHT22;38763;53.096;6.062;2022-09-09T02:05:43;14.20;99.90
52899;DHT22;38763;53.096;6.062;2022-09-09T02:13:23;14.10;99.90
52899;DHT22;38763;53.096;6.062;2022-09-09T02:16:00;14.10;99.90
52899;DHT22;38763;53.096;6.062;2022-09-09T02:18:54;14.10;99.90
52899;DHT22;38763;53.096;6.062;2022-09-09T02:21:22;14.10;99.90
52899;DHT22;38763;53.096;6.062;2022-09-09T02:23:49;14.10;99.90
52899;DHT22;38763;53.096;6.062;2022-09-09T02:26:19;14.00;99.90
52899;DHT22;38763;53.096;6.062;2022-09-09T02:28:50;14.00;99.90
52899;DHT22;38763;53.096;6.062;2022-09-09T02:31:19;14.10;99.90
52899;DHT22;38763;53.096;6.062;2022-09-09T02:33:51;14.10;99.90
52899;DHT22;38763;53.096;6.062;2022-09-09T02:36:18;14.00;99.90
52899;DHT22;38763;53.096;6.062;2022-09-09T02:38:47;14.00;99.90
52899;DHT22;38763;53.096;6.062;2022-09-09T02:41:28;14.10;99.90
52899;DHT22;38763;53.096;6.062;2022-09-09T02:43:56;14.00;99.90
52899;DHT22;38763;53.096;6.062;2022-09-09T02:52:05;14.00;99.90
52899;DHT22;38763;53.096;6.062;2022-09-09T02:54:34;14.00;99.90
52899;DHT22;38763;53.096;6.062;2022-09-09T02:57:16;14.10;99.90
52899;DHT22;38763;53.096;6.062;2022-09-09T02:59:44;14.10;99.90
52899;DHT22;38763;53.096;6.062;2022-09-09T03:02:10;14.10;99.90
52899;DHT22;38763;53.096;6.062;2022-09-09T03:04:37;14.10;99.90
52899;DHT22;38763;53.096;6.062;2022-09-09T03:07:03;14.10;99.90
52899;DHT22;38763;53.096;6.062;2022-09-09T03:09:29;14.20;99.90
52899;DHT22;38763;53.096;6.062;2022-09-09T03:11:55;14.00;99.90
52899;DHT22;38763;53.096;6.062;2022-09-09T03:14:21;14.00;99.90
52899;DHT22;38763;53.096;6.062;2022-09-09T03:16:53;14.10;99.90
52899;DHT22;38763;53.096;6.062;2022-09-09T03:19:20;14.10;99.90
52899;DHT22;38763;53.096;6.062;2022-09-09T03:21:46;14.20;99.90
52899;DHT22;38763;53.096;6.062;2022-09-09T03:24:12;14.00;99.90
52899;DHT22;38763;53.096;6.062;2022-09-09T03:26:39;14.10;99.90
52899;DHT22;38763;53.096;6.062;2022-09-09T03:29:06;14.00;99.90
52899;DHT22;38763;53.096;6.062;2022-09-09T03:31:33;14.10;99.90
52899;DHT22;38763;53.096;6.062;2022-09-09T03:33:59;14.20;99.90
52899;DHT22;38763;53.096;6.062;2022-09-09T03:36:26;14.20;99.90
52899;DHT22;38763;53.096;6.062;2022-09-09T03:38:52;14.10;99.90
52899;DHT22;38763;53.096;6.062;2022-09-09T03:41:20;14.00;99.90
52899;DHT22;38763;53.096;6.062;2022-09-09T03:43:46;14.00;99.90
52899;DHT22;38763;53.096;6.062;2022-09-09T03:46:12;14.00;99.90
52899;DHT22;38763;53.096;6.062;2022-09-09T03:48:37;14.10;99.90
52899;DHT22;38763;53.096;6.062;2022-09-09T03:51:03;14.00;99.90
52899;DHT22;38763;53.096;6.062;2022-09-09T03:53:29;14.20;99.90
52899;DHT22;38763;53.096;6.062;2022-09-09T03:55:55;14.10;99.90
52899;DHT22;38763;53.096;6.062;2022-09-09T03:58:25;14.10;99.90
52899;DHT22;38763;53.096;6.062;2022-09-09T04:01:06;14.00;99.90
52899;DHT22;38763;53.096;6.062;2022-09-09T04:03:32;14.10;99.90
52899;DHT22;38763;53.096;6.062;2022-09-09T04:05:59;14.00;99.90
52899;DHT22;38763;53.096;6.062;2022-09-09T04:08:25;14.10;99.90
52899;DHT22;38763;53.096;6.062;2022-09-09T04:10:51;14.10;99.90
52899;DHT22;38763;53.096;6.062;2022-09-09T04:13:18;14.00;99.90
52899;DHT22;38763;53.096;6.062;2022-09-09T04:15:51;14.10;99.90
52899;DHT22;38763;53.096;6.062;2022-09-09T04:18:17;14.00;99.90
52899;DHT22;38763;53.096;6.062;2022-09-09T04:20:43;14.10;99.90
52899;DHT22;38763;53.096;6.062;2022-09-09T04:23:10;14.00;99.90
52899;DHT22;38763;53.096;6.062;2022-09-09T04:25:36;14.10;99.90
52899;DHT22;38763;53.096;6.062;2022-09-09T04:28:03;14.00;99.90
52899;DHT22;38763;53.096;6.062;2022-09-09T04:30:28;14.10;99.90
52899;DHT22;38763;53.096;6.062;2022-09-09T04:32:54;14.00;99.90
52899;DHT22;38763;53.096;6.062;2022-09-09T04:35:20;14.10;99.90
52899;DHT22;38763;53.096;6.062;2022-09-09T04:37:46;14.10;99.90
52899;DHT22;38763;53.096;6.062;2022-09-09T04:40:11;14.00;99.90
52899;DHT22;38763;53.096;6.062;2022-09-09T04:42:37;14.10;99.90
52899;DHT22;38763;53.096;6.062;2022-09-09T04:45:04;14.20;99.90
52899;DHT22;38763;53.096;6.062;2022-09-09T04:47:30;14.10;99.90
52899;DHT22;38763;53.096;6.062;2022-09-09T04:49:56;14.10;99.90
52899;DHT22;38763;53.096;6.062;2022-09-09T04:52:22;14.10;99.90
52899;DHT22;38763;53.096;6.062;2022-09-09T04:54:47;14.10;99.90
52899;DHT22;38763;53.096;6.062;2022-09-09T04:57:13;14.10;99.90
52899;DHT22;38763;53.096;6.062;2022-09-09T04:59:39;14.10;99.90
52899;DHT22;38763;53.096;6.062;2022-09-09T05:02:05;14.20;99.90
52899;DHT22;38763;53.096;6.062;2022-09-09T05:04:31;14.10;99.90
52899;DHT22;38763;53.096;6.062;2022-09-09T05:06:57;14.10;99.90
52899;DHT22;38763;53.096;6.062;2022-09-09T05:09:22;14.20;99.90
52899;DHT22;38763;53.096;6.062;2022-09-09T05:11:48;14.20;99.90
52899;DHT22;38763;53.096;6.062;2022-09-09T05:14:14;14.00;99.90
52899;DHT22;38763;53.096;6.062;2022-09-09T05:16:40;14.20;99.90
52899;DHT22;38763;53.096;6.062;2022-09-09T05:19:06;14.10;99.90
52899;DHT22;38763;53.096;6.062;2022-09-09T05:21:33;14.20;99.90
52899;DHT22;38763;53.096;6.062;2022-09-09T05:23:59;14.20;99.90
52899;DHT22;38763;53.096;6.062;2022-09-09T05:26:26;14.20;99.90
52899;DHT22;38763;53.096;6.062;2022-09-09T05:28:52;14.20;99.90
52899;DHT22;38763;53.096;6.062;2022-09-09T05:31:19;14.00;99.90
52899;DHT22;38763;53.096;6.062;2022-09-09T05:33:46;14.10;99.90
52899;DHT22;38763;53.096;6.062;2022-09-09T05:36:17;14.20;99.90
52899;DHT22;38763;53.096;6.062;2022-09-09T05:38:43;14.10;99.90
52899;DHT22;38763;53.096;6.062;2022-09-09T05:41:10;14.10;99.90
52899;DHT22;38763;53.096;6.062;2022-09-09T05:43:37;14.20;99.90
52899;DHT22;38763;53.096;6.062;2022-09-09T05:46:05;14.20;99.90
52899;DHT22;38763;53.096;6.062;2022-09-09T05:48:32;14.10;99.90
52899;DHT22;38763;53.096;6.062;2022-09-09T05:51:00;14.20;99.90
52899;DHT22;38763;53.096;6.062;2022-09-09T05:53:26;14.20;99.90
52899;DHT22;38763;53.096;6.062;2022-09-09T05:56:19;14.30;99.90
52899;DHT22;38763;53.096;6.062;2022-09-09T05:58:46;14.20;99.90
52899;DHT22;38763;53.096;6.062;2022-09-09T06:01:19;14.20;99.90
52899;DHT22;38763;53.096;6.062;2022-09-09T06:03:46;14.10;99.90
52899;DHT22;38763;53.096;6.062;2022-09-09T06:06:15;14.40;99.90
52899;DHT22;38763;53.096;6.062;2022-09-09T06:08:43;14.30;99.90
52899;DHT22;38763;53.096;6.062;2022-09-09T06:11:26;14.30;99.90
52899;DHT22;38763;53.096;6.062;2022-09-09T06:13:52;14.50;99.90
52899;DHT22;38763;53.096;6.062;2022-09-09T06:16:21;14.40;99.90
52899;DHT22;38763;53.096;6.062;2022-09-09T06:18:49;14.50;99.90
52899;DHT22;38763;53.096;6.062;2022-09-09T06:21:18;14.60;99.90
52899;DHT22;38763;53.096;6.062;2022-09-09T06:23:44;14.60;99.90
52899;DHT22;38763;53.096;6.062;2022-09-09T06:26:18;14.40;99.90
52899;DHT22;38763;53.096;6.062;2022-09-09T06:28:45;14.50;99.90
52899;DHT22;38763;53.096;6.062;2022-09-09T06:31:13;14.50;99.90
52899;DHT22;38763;53.096;6.062;2022-09-09T06:33:40;14.50;99.90
52899;DHT22;38763;53.096;6.062;2022-09-09T06:36:15;14.50;99.90
52899;DHT22;38763;53.096;6.062;2022-09-09T06:38:42;14.50;99.90
52899;DHT22;38763;53.096;6.062;2022-09-09T06:41:09;14.50;99.90
52899;DHT22;38763;53.096;6.062;2022-09-09T06:43:35;14.50;99.90
52899;DHT22;38763;53.096;6.062;2022-09-09T06:48:29;14.60;99.90
52899;DHT22;38763;53.096;6.062;2022-09-09T06:51:05;14.50;99.90
52899;DHT22;38763;53.096;6.062;2022-09-09T06:53:35;14.60;99.90
52899;DHT22;38763;53.096;6.062;2022-09-09T06:56:02;14.50;99.90
52899;DHT22;38763;53.096;6.062;2022-09-09T06:58:28;14.60;99.90
52899;DHT22;38763;53.096;6.062;2022-09-09T07:01:03;14.70;99.90
52899;DHT22;38763;53.096;6.062;2022-09-09T07:03:28;14.70;99.90
52899;DHT22;38763;53.096;6.062;2022-09-09T07:05:55;14.70;99.90
52899;DHT22;38763;53.096;6.062;2022-09-09T07:08:21;14.80;99.90
52899;DHT22;38763;53.096;6.062;2022-09-09T07:10:47;14.80;99.90
52899;DHT22;38763;53.096;6.062;2022-09-09T07:13:13;14.90;99.90
52899;DHT22;38763;53.096;6.062;2022-09-09T07:15:41;15.00;99.90
52899;DHT22;38763;53.096;6.062;2022-09-09T07:18:07;15.00;99.90
52899;DHT22;38763;53.096;6.062;2022-09-09T07:20:34;15.10;99.90
52899;DHT22;38763;53.096;6.062;2022-09-09T07:22:59;15.20;99.90
52899;DHT22;38763;53.096;6.062;2022-09-09T07:25:25;15.20;99.90
52899;DHT22;38763;53.096;6.062;2022-09-09T07:27:54;15.30;99.90
52899;DHT22;38763;53.096;6.062;2022-09-09T07:30:20;15.30;99.90
52899;DHT22;38763;53.096;6.062;2022-09-09T07:32:46;15.40;99.90
52899;DHT22;38763;53.096;6.062;2022-09-09T07:35:12;15.50;99.90
52899;DHT22;38763;53.096;6.062;2022-09-09T07:37:38;15.60;99.90
52899;DHT22;38763;53.096;6.062;2022-09-09T07:40:04;15.50;99.90
52899;DHT22;38763;53.096;6.062;2022-09-09T07:42:30;15.60;99.90
52899;DHT22;38763;53.096;6.062;2022-09-09T07:44:56;15.70;99.90
52899;DHT22;38763;53.096;6.062;2022-09-09T07:47:22;15.60;99.90
52899;DHT22;38763;53.096;6.062;2022-09-09T07:49:50;15.70;99.90
52899;DHT22;38763;53.096;6.062;2022-09-09T07:52:15;15.80;99.90
52899;DHT22;38763;53.096;6.062;2022-09-09T07:54:41;15.80;99.90
52899;DHT22;38763;53.096;6.062;2022-09-09T07:57:07;15.90;99.90
52899;DHT22;38763;53.096;6.062;2022-09-09T07:59:33;16.10;99.90
52899;DHT22;38763;53.096;6.062;2022-09-09T08:01:59;16.10;99.90
52899;DHT22;38763;53.096;6.062;2022-09-09T08:04:25;16.20;99.90
52899;DHT22;38763;53.096;6.062;2022-09-09T08:06:54;16.10;99.90
52899;DHT22;38763;53.096;6.062;2022-09-09T08:09:21;16.30;99.90
52899;DHT22;38763;53.096;6.062;2022-09-09T08:11:50;16.40;99.90
52899;DHT22;38763;53.096;6.062;2022-09-09T08:14:16;16.50;99.90
52899;DHT22;38763;53.096;6.062;2022-09-09T08:16:45;16.60;99.90
52899;DHT22;38763;53.096;6.062;2022-09-09T08:19:11;16.60;99.90
52899;DHT22;38763;53.096;6.062;2022-09-09T08:21:39;16.70;99.90
52899;DHT22;38763;53.096;6.062;2022-09-09T08:24:06;16.80;99.90
52899;DHT22;38763;53.096;6.062;2022-09-09T08:26:40;16.90;99.90
52899;DHT22;38763;53.096;6.062;2022-09-09T08:29:08;17.00;99.90
52899;DHT22;38763;53.096;6.062;2022-09-09T08:31:49;17.00;99.90
52899;DHT22;38763;53.096;6.062;2022-09-09T08:34:15;16.90;99.90
52899;DHT22;38763;53.096;6.062;2022-09-09T08:36:43;16.90;99.90
52899;DHT22;38763;53.096;6.062;2022-09-09T08:39:11;16.90;99.90
52899;DHT22;38763;53.096;6.062;2022-09-09T08:49:55;17.20;99.90
52899;DHT22;38763;53.096;6.062;2022-09-09T08:52:31;17.40;99.90
52899;DHT22;38763;53.096;6.062;2022-09-09T08:55:13;17.50;99.90
52899;DHT22;38763;53.096;6.062;2022-09-09T08:57:40;17.60;99.90
52899;DHT22;38763;53.096;6.062;2022-09-09T09:00:10;17.70;99.90
52899;DHT22;38763;53.096;6.062;2022-09-09T09:05:37;17.80;99.90
52899;DHT22;38763;53.096;6.062;2022-09-09T09:08:17;17.80;99.90
52899;DHT22;38763;53.096;6.062;2022-09-09T09:10:48;17.80;99.90
52899;DHT22;38763;53.096;6.062;2022-09-09T09:13:20;17.80;99.90
52899;DHT22;38763;53.096;6.062;2022-09-09T09:15:54;18.00;99.90
52899;DHT22;38763;53.096;6.062;2022-09-09T09:18:22;18.00;99.90
52899;DHT22;38763;53.096;6.062;2022-09-09T09:23:27;18.20;99.90
52899;DHT22;38763;53.096;6.062;2022-09-09T09:25:59;18.20;99.90
52899;DHT22;38763;53.096;6.062;2022-09-09T09:28:29;18.20;99.90
52899;DHT22;38763;53.096;6.062;2022-09-09T09:31:03;18.20;99.90
52899;DHT22;38763;53.096;6.062;2022-09-09T09:36:09;18.20;99.90
52899;DHT22;38763;53.096;6.062;2022-09-09T09:38:36;18.20;99.90
52899;DHT22;38763;53.096;6.062;2022-09-09T09:41:02;18.30;99.90
52899;DHT22;38763;53.096;6.062;2022-09-09T09:43:33;18.20;99.90
52899;DHT22;38763;53.096;6.062;2022-09-09T09:45:59;18.20;99.90
52899;DHT22;38763;53.096;6.062;2022-09-09T09:48:26;18.10;99.90
52899;DHT22;38763;53.096;6.062;2022-09-09T09:50:58;18.00;99.90
52899;DHT22;38763;53.096;6.062;2022-09-09T09:53:30;18.00;99.90
52899;DHT22;38763;53.096;6.062;2022-09-09T09:56:02;18.20;99.90
52899;DHT22;38763;53.096;6.062;2022-09-09T09:58:33;18.30;99.90
52899;DHT22;38763;53.096;6.062;2022-09-09T10:01:02;18.40;99.90
52899;DHT22;38763;53.096;6.062;2022-09-09T10:03:33;18.50;99.90
52899;DHT22;38763;53.096;6.062;2022-09-09T10:06:03;18.60;99.90
52899;DHT22;38763;53.096;6.062;2022-09-09T10:08:32;18.60;99.90
52899;DHT22;38763;53.096;6.062;2022-09-09T10:11:04;18.60;99.90
52899;DHT22;38763;53.096;6.062;2022-09-09T10:14:08;18.60;99.90
52899;DHT22;38763;53.096;6.062;2022-09-09T10:19:16;18.60;99.90
52899;DHT22;38763;53.096;6.062;2022-09-09T10:30:03;18.30;99.90
52899;DHT22;38763;53.096;6.062;2022-09-09T10:33:13;18.20;99.90
52899;DHT22;38763;53.096;6.062;2022-09-09T10:38:21;18.40;99.90
52899;DHT22;38763;53.096;6.062;2022-09-09T10:46:36;18.70;99.90
52899;DHT22;38763;53.096;6.062;2022-09-09T10:52:35;19.00;99.90
52899;DHT22;38763;53.096;6.062;2022-09-09T10:55:23;19.10;99.90
52899;DHT22;38763;53.096;6.062;2022-09-09T10:57:52;19.10;99.90
52899;DHT22;38763;53.096;6.062;2022-09-09T11:03:01;19.30;99.90
52899;DHT22;38763;53.096;6.062;2022-09-09T11:05:42;19.30;99.90
52899;DHT22;38763;53.096;6.062;2022-09-09T11:08:21;19.40;99.90
52899;DHT22;38763;53.096;6.062;2022-09-09T11:11:02;19.40;99.90
52899;DHT22;38763;53.096;6.062;2022-09-09T11:18:49;19.40;99.90
52899;DHT22;38763;53.096;6.062;2022-09-09T11:21:28;19.40;99.90
52899;DHT22;38763;53.096;6.062;2022-09-09T11:24:10;19.40;99.90
52899;DHT22;38763;53.096;6.062;2022-09-09T11:27:07;19.40;99.90
52899;DHT22;38763;53.096;6.062;2022-09-09T11:33:18;19.40;99.90
52899;DHT22;38763;53.096;6.062;2022-09-09T11:36:03;19.30;99.90
52899;DHT22;38763;53.096;6.062;2022-09-09T11:38:46;19.10;99.90
52899;DHT22;38763;53.096;6.062;2022-09-09T11:41:16;19.00;99.90
52899;DHT22;38763;53.096;6.062;2022-09-09T11:43:45;19.20;99.90
52899;DHT22;38763;53.096;6.062;2022-09-09T11:46:14;19.10;99.90
52899;DHT22;38763;53.096;6.062;2022-09-09T11:48:45;19.10;99.90
52899;DHT22;38763;53.096;6.062;2022-09-09T11:54:00;19.30;99.90
52899;DHT22;38763;53.096;6.062;2022-09-09T11:56:34;19.40;99.90
52899;DHT22;38763;53.096;6.062;2022-09-09T11:59:06;19.50;99.90
52899;DHT22;38763;53.096;6.062;2022-09-09T12:01:41;19.60;99.90
52899;DHT22;38763;53.096;6.062;2022-09-09T12:06:45;19.70;99.90
52899;DHT22;38763;53.096;6.062;2022-09-09T12:12:29;19.70;99.90
52899;DHT22;38763;53.096;6.062;2022-09-09T12:17:44;19.70;99.90
52899;DHT22;38763;53.096;6.062;2022-09-09T12:20:33;19.80;99.90
52899;DHT22;38763;53.096;6.062;2022-09-09T12:34:09;19.80;99.90
52899;DHT22;38763;53.096;6.062;2022-09-09T12:36:37;19.80;99.90
52899;DHT22;38763;53.096;6.062;2022-09-09T12:39:27;19.80;99.90
52899;DHT22;38763;53.096;6.062;2022-09-09T12:41:55;19.90;99.90
52899;DHT22;38763;53.096;6.062;2022-09-09T12:44:23;19.90;99.90
52899;DHT22;38763;53.096;6.062;2022-09-09T12:46:49;20.00;99.90
52899;DHT22;38763;53.096;6.062;2022-09-09T12:49:37;20.00;99.90
52899;DHT22;38763;53.096;6.062;2022-09-09T12:54:45;20.00;99.90
52899;DHT22;38763;53.096;6.062;2022-09-09T12:57:17;20.10;99.90
52899;DHT22;38763;53.096;6.062;2022-09-09T12:59:44;20.10;99.90
52899;DHT22;38763;53.096;6.062;2022-09-09T13:02:25;20.20;99.90
52899;DHT22;38763;53.096;6.062;2022-09-09T13:04:52;20.10;99.90
52899;DHT22;38763;53.096;6.062;2022-09-09T13:07:19;20.10;99.90
52899;DHT22;38763;53.096;6.062;2022-09-09T13:09:46;20.20;99.90
52899;DHT22;38763;53.096;6.062;2022-09-09T13:12:19;20.10;99.90
52899;DHT22;38763;53.096;6.062;2022-09-09T13:14:47;20.10;99.90
52899;DHT22;38763;53.096;6.062;2022-09-09T13:17:24;20.10;99.90
52899;DHT22;38763;53.096;6.062;2022-09-09T13:19:51;20.10;99.90
52899;DHT22;38763;53.096;6.062;2022-09-09T13:22:22;20.10;99.90
52899;DHT22;38763;53.096;6.062;2022-09-09T13:24:59;20.10;99.90
52899;DHT22;38763;53.096;6.062;2022-09-09T13:27:35;20.10;99.90
52899;DHT22;38763;53.096;6.062;2022-09-09T13:30:32;20.10;99.90
52899;DHT22;38763;53.096;6.062;2022-09-09T13:35:31;20.00;99.90
52899;DHT22;38763;53.096;6.062;2022-09-09T13:37:58;19.90;99.90
52899;DHT22;38763;53.096;6.062;2022-09-09T13:40:25;19.70;99.90
52899;DHT22;38763;53.096;6.062;2022-09-09T13:42:57;19.40;99.90
52899;DHT22;38763;53.096;6.062;2022-09-09T13:45:26;19.30;99.90
52899;DHT22;38763;53.096;6.062;2022-09-09T13:47:55;19.30;99.90
52899;DHT22;38763;53.096;6.062;2022-09-09T13:52:50;19.40;99.90
52899;DHT22;38763;53.096;6.062;2022-09-09T13:55:17;19.40;99.90
52899;DHT22;38763;53.096;6.062;2022-09-09T13:57:57;19.50;99.90
52899;DHT22;38763;53.096;6.062;2022-09-09T14:00:24;19.60;99.90
52899;DHT22;38763;53.096;6.062;2022-09-09T14:02:50;19.70;99.90
52899;DHT22;38763;53.096;6.062;2022-09-09T14:05:19;19.70;99.90
52899;DHT22;38763;53.096;6.062;2022-09-09T14:07:45;19.90;99.90
52899;DHT22;38763;53.096;6.062;2022-09-09T14:10:12;20.00;99.90
52899;DHT22;38763;53.096;6.062;2022-09-09T14:12:38;19.90;99.90
52899;DHT22;38763;53.096;6.062;2022-09-09T14:15:05;20.00;99.90
52899;DHT22;38763;53.096;6.062;2022-09-09T14:17:32;20.00;99.90
52899;DHT22;38763;53.096;6.062;2022-09-09T14:19:58;20.00;99.90
52899;DHT22;38763;53.096;6.062;2022-09-09T14:22:24;20.10;99.90
52899;DHT22;38763;53.096;6.062;2022-09-09T14:24:50;20.20;99.90
52899;DHT22;38763;53.096;6.062;2022-09-09T14:27:16;20.20;99.90
52899;DHT22;38763;53.096;6.062;2022-09-09T14:29:42;20.20;99.90
52899;DHT22;38763;53.096;6.062;2022-09-09T14:32:09;20.20;99.90
52899;DHT22;38763;53.096;6.062;2022-09-09T14:34:35;20.20;99.90
52899;DHT22;38763;53.096;6.062;2022-09-09T14:37:01;20.20;99.90
52899;DHT22;38763;53.096;6.062;2022-09-09T14:39:26;20.20;99.90
52899;DHT22;38763;53.096;6.062;2022-09-09T14:41:52;20.10;99.90
52899;DHT22;38763;53.096;6.062;2022-09-09T14:44:17;20.00;99.90
52899;DHT22;38763;53.096;6.062;2022-09-09T14:46:44;20.10;99.90
52899;DHT22;38763;53.096;6.062;2022-09-09T14:49:09;20.00;99.90
52899;DHT22;38763;53.096;6.062;2022-09-09T14:51:38;19.90;99.90
52899;DHT22;38763;53.096;6.062;2022-09-09T14:54:04;19.90;99.90
52899;DHT22;38763;53.096;6.062;2022-09-09T14:56:32;19.80;99.90
52899;DHT22;38763;53.096;6.062;2022-09-09T14:59:00;19.70;99.90
52899;DHT22;38763;53.096;6.062;2022-09-09T15:01:27;19.60;99.90
52899;DHT22;38763;53.096;6.062;2022-09-09T15:03:58;19.60;99.90
52899;DHT22;38763;53.096;6.062;2022-09-09T15:06:25;19.60;99.90
52899;DHT22;38763;53.096;6.062;2022-09-09T15:08:52;19.50;99.90
52899;DHT22;38763;53.096;6.062;2022-09-09T15:11:19;19.10;99.90
52899;DHT22;38763;53.096;6.062;2022-09-09T15:13:46;18.90;99.90
52899;DHT22;38763;53.096;6.062;2022-09-09T15:16:16;18.60;99.90
52899;DHT22;38763;53.096;6.062;2022-09-09T15:18:43;18.50;99.90
52899;DHT22;38763;53.096;6.062;2022-09-09T15:21:15;18.40;99.90
52899;DHT22;38763;53.096;6.062;2022-09-09T15:23:41;18.30;99.90
52899;DHT22;38763;53.096;6.062;2022-09-09T15:26:07;18.10;99.90
52899;DHT22;38763;53.096;6.062;2022-09-09T15:28:34;18.10;99.90
52899;DHT22;38763;53.096;6.062;2022-09-09T15:31:16;18.00;99.90
52899;DHT22;38763;53.096;6.062;2022-09-09T15:33:52;18.00;99.90
52899;DHT22;38763;53.096;6.062;2022-09-09T15:36:23;17.80;99.90
52899;DHT22;38763;53.096;6.062;2022-09-09T15:38:50;17.80;99.90
52899;DHT22;38763;53.096;6.062;2022-09-09T15:41:18;17.70;99.90
52899;DHT22;38763;53.096;6.062;2022-09-09T15:43:49;17.60;99.90
52899;DHT22;38763;53.096;6.062;2022-09-09T15:46:22;17.70;99.90
52899;DHT22;38763;53.096;6.062;2022-09-09T15:48:56;17.70;99.90
52899;DHT22;38763;53.096;6.062;2022-09-09T15:51:23;17.80;99.90
52899;DHT22;38763;53.096;6.062;2022-09-09T15:53:53;17.70;99.90
52899;DHT22;38763;53.096;6.062;2022-09-09T15:56:19;17.90;99.90
52899;DHT22;38763;53.096;6.062;2022-09-09T15:58:45;17.80;99.90
52899;DHT22;38763;53.096;6.062;2022-09-09T16:01:11;17.90;99.90
52899;DHT22;38763;53.096;6.062;2022-09-09T16:03:40;17.90;99.90
52899;DHT22;38763;53.096;6.062;2022-09-09T16:06:09;17.90;99.90
52899;DHT22;38763;53.096;6.062;2022-09-09T16:08:37;17.90;99.90
52899;DHT22;38763;53.096;6.062;2022-09-09T16:11:13;17.90;99.90
52899;DHT22;38763;53.096;6.062;2022-09-09T16:13:43;17.80;99.90
52899;DHT22;38763;53.096;6.062;2022-09-09T16:16:13;17.90;99.90
52899;DHT22;38763;53.096;6.062;2022-09-09T16:18:41;17.90;99.90
52899;DHT22;38763;53.096;6.062;2022-09-09T16:21:14;17.80;99.90
52899;DHT22;38763;53.096;6.062;2022-09-09T16:23:40;17.90;99.90
52899;DHT22;38763;53.096;6.062;2022-09-09T16:26:06;17.80;99.90
52899;DHT22;38763;53.096;6.062;2022-09-09T16:28:31;17.80;99.90
52899;DHT22;38763;53.096;6.062;2022-09-09T16:30:57;17.80;99.90
52899;DHT22;38763;53.096;6.062;2022-09-09T16:33:26;17.80;99.90
52899;DHT22;38763;53.096;6.062;2022-09-09T16:35:52;17.70;99.90
52899;DHT22;38763;53.096;6.062;2022-09-09T16:38:17;17.70;99.90
52899;DHT22;38763;53.096;6.062;2022-09-09T16:40:44;17.80;99.90
52899;DHT22;38763;53.096;6.062;2022-09-09T16:43:10;17.70;99.90
52899;DHT22;38763;53.096;6.062;2022-09-09T16:45:42;17.70;99.90
52899;DHT22;38763;53.096;6.062;2022-09-09T16:48:08;17.70;99.90
52899;DHT22;38763;53.096;6.062;2022-09-09T16:50:34;17.70;99.90
52899;DHT22;38763;53.096;6.062;2022-09-09T16:52:59;17.80;99.90
52899;DHT22;38763;53.096;6.062;2022-09-09T16:55:28;17.80;99.90
52899;DHT22;38763;53.096;6.062;2022-09-09T16:57:54;17.80;99.90
52899;DHT22;38763;53.096;6.062;2022-09-09T17:00:20;17.80;99.90
52899;DHT22;38763;53.096;6.062;2022-09-09T17:02:45;17.80;99.90
52899;DHT22;38763;53.096;6.062;2022-09-09T17:05:11;17.80;99.90
52899;DHT22;38763;53.096;6.062;2022-09-09T17:07:37;17.80;99.90
52899;DHT22;38763;53.096;6.062;2022-09-09T17:10:04;17.70;99.90
52899;DHT22;38763;53.096;6.062;2022-09-09T17:12:31;17.80;99.90
52899;DHT22;38763;53.096;6.062;2022-09-09T17:14:57;17.70;99.90
52899;DHT22;38763;53.096;6.062;2022-09-09T17:17:25;17.70;99.90
52899;DHT22;38763;53.096;6.062;2022-09-09T17:19:52;17.80;99.90
52899;DHT22;38763;53.096;6.062;2022-09-09T17:22:18;17.70;99.90
52899;DHT22;38763;53.096;6.062;2022-09-09T17:24:45;17.70;99.90
52899;DHT22;38763;53.096;6.062;2022-09-09T17:27:11;17.70;99.90
52899;DHT22;38763;53.096;6.062;2022-09-09T17:29:38;17.80;99.90
52899;DHT22;38763;53.096;6.062;2022-09-09T17:32:04;17.70;99.90
52899;DHT22;38763;53.096;6.062;2022-09-09T17:34:31;17.70;99.90
52899;DHT22;38763;53.096;6.062;2022-09-09T17:36:56;17.80;99.90
52899;DHT22;38763;53.096;6.062;2022-09-09T17:39:22;17.70;99.90
52899;DHT22;38763;53.096;6.062;2022-09-09T17:41:48;17.70;99.90
52899;DHT22;38763;53.096;6.062;2022-09-09T17:44:14;17.70;99.90